Dixon Springs, Illinois
Current Conditions -  °F | °C
As of 10:55 AM on Thursday 30 Oct 2014 (Local Time) from KM30 Reporting Station
Clear Clear  
Wind Chill: 55°   Ceiling: Unl
Heat Index: 55°   Visibility: 10mi
Dew Point: 43°   Wind: 5mph
Humidity: 66%   Direction: 130°SE
Pressure: 30.17"   Gusts: NA
Location:  37.3798°N, 88.7652°W
Report Text: KM30 301555Z AUTO 13004KT 10SM CLR 13/06 A3017 RMK AO2 T01250062
Loading
Personal Weather Stations






























Interactive Weather Map
Tropical Storm Tracking
New forecast layout! Learn more

10-Day Weather Forecast

Advertisements
Track Severe Weather on mobile